Terminal Aerodrome Forecast
Issued by NWS

Home | Current Version | Previous Version | Text Only | Print | Product List | Glossary On
Versions: 1 2 3 4 5 6 7 8 9 10 11 12 13
449
FTUS45 KFGZ 201743
TAFPGA
TAF
KPGA 201743Z 2018/2118 23009KT P6SM OVC070
     FM210100 18007KT 6SM -SHRA BKN020
     FM210900 23010KT P6SM SCT020 OVC100=

USA.gov is the U.S. government's official web portal to all federal, state and local government web resources and services.